UAE3Q OMDB-LFPG
Flight info
| Callsign | UAE3Q |
|---|---|
| Flight time | N/A |
| Altitude | 33000 |
| Route | ANVIX L223 TARDI N629 BOTAM Y855 LAKLU/N0510F320 Q204 NALKI G652 TOKRA DCT ALROK DCT BOSOB/N0505F340 DCT ITRUX Y511 PMA Z712 WEJ L677 CVO L617 NOZ L551 ANTAR UN133 GUDIS/N0484F360 DCT RIGRO DCT AMISI DCT DISOR DCT LONTA UL608 DOLEV DCT PEVAL DCT RESIA DCT SOPER DCT ELMUR L613 HOC/N0481F370 DCT MOROK/N0484F350 DCT PENDU DCT JAVVU DCT GIVRI/N0481F360 DCT TINIL |
| Aircraft | B77W/H-SDE1E2E3FGHIJ2J3J4J5M1RWXY/LB1D1 |
Departure
| Time | 2026-04-30 05:09 |
|---|---|
| Airport | Dubai International Airport (OMDB) |
Arrival
| Time | N/A |
|---|---|
| Airport | Charles de Gaulle International Airport (LFPG) |
| Time | Latitude | Longitude | Altitude | Speed | Heading |
|---|---|---|---|---|---|
| 2026-04-30 04:52 | 25.24134 | 55.37563 | 31 ft | 0 kts | 301° |
| 2026-04-30 05:01 | 25.24124 | 55.37581 | 29 ft | 4 kts | 301° |
| 2026-04-30 05:01 | 25.24110 | 55.37607 | 31 ft | 4 kts | 301° |
| 2026-04-30 05:01 | 25.24098 | 55.37628 | 31 ft | 4 kts | 313° |
| 2026-04-30 05:01 | 25.24077 | 55.37641 | 31 ft | 4 kts | 3° |
| 2026-04-30 05:02 | 25.24053 | 55.37633 | 31 ft | 3 kts | 31° |
| 2026-04-30 05:02 | 25.24031 | 55.37618 | 31 ft | 4 kts | 31° |
| 2026-04-30 05:02 | 25.24021 | 55.37612 | 31 ft | 0 kts | 31° |
| 2026-04-30 05:04 | 25.24024 | 55.37614 | 31 ft | 1 kts | 31° |
| 2026-04-30 05:05 | 25.24041 | 55.37625 | 31 ft | 4 kts | 31° |
| 2026-04-30 05:05 | 25.24074 | 55.37648 | 31 ft | 7 kts | 31° |
| 2026-04-30 05:05 | 25.24123 | 55.37680 | 29 ft | 9 kts | 31° |
| 2026-04-30 05:06 | 25.24261 | 55.37773 | 30 ft | 14 kts | 31° |
| 2026-04-30 05:06 | 25.24347 | 55.37831 | 26 ft | 15 kts | 33° |
| 2026-04-30 05:06 | 25.24434 | 55.37899 | 29 ft | 15 kts | 36° |
| 2026-04-30 05:06 | 25.24523 | 55.37966 | 29 ft | 16 kts | 35° |
| 2026-04-30 05:07 | 25.24626 | 55.38043 | 28 ft | 19 kts | 32° |
| 2026-04-30 05:07 | 25.24715 | 55.38101 | 30 ft | 8 kts | 22° |
| 2026-04-30 05:07 | 25.24768 | 55.38085 | 31 ft | 9 kts | 316° |
| 2026-04-30 05:07 | 25.24800 | 55.38035 | 30 ft | 0 kts | 302° |
| 2026-04-30 05:08 | 25.24809 | 55.38019 | 30 ft | 12 kts | 302° |
| 2026-04-30 05:08 | 25.24967 | 55.37734 | 30 ft | 78 kts | 301° |
| 2026-04-30 05:08 | 25.25364 | 55.37020 | 30 ft | 139 kts | 301° |
| 2026-04-30 05:09 | 25.25961 | 55.35940 | 31 ft | 188 kts | 301° |
| 2026-04-30 05:09 | 25.26674 | 55.34649 | 323 ft | 201 kts | 300° |
| 2026-04-30 05:09 | 25.27418 | 55.33314 | 770 ft | 201 kts | 300° |
| 2026-04-30 05:09 | 25.28118 | 55.32036 | 1442 ft | 188 kts | 302° |
| 2026-04-30 05:10 | 25.28783 | 55.30843 | 2184 ft | 176 kts | 303° |
| 2026-04-30 05:10 | 25.29257 | 55.29589 | 2483 ft | 186 kts | 276° |
| 2026-04-30 05:10 | 25.28984 | 55.28166 | 2829 ft | 194 kts | 255° |
| 2026-04-30 05:10 | 25.28431 | 55.26785 | 3187 ft | 198 kts | 252° |
| 2026-04-30 05:11 | 25.27846 | 55.25404 | 3585 ft | 200 kts | 251° |
| 2026-04-30 05:11 | 25.27083 | 55.24077 | 3721 ft | 219 kts | 224° |
| 2026-04-30 05:11 | 25.25612 | 55.23445 | 3848 ft | 242 kts | 185° |
| 2026-04-30 05:11 | 25.23938 | 55.23831 | 4108 ft | 253 kts | 151° |
| 2026-04-30 05:12 | 25.22574 | 55.25026 | 4502 ft | 252 kts | 130° |
| 2026-04-30 05:12 | 25.21490 | 55.26564 | 4894 ft | 259 kts | 124° |
| 2026-04-30 05:12 | 25.20420 | 55.28258 | 5033 ft | 278 kts | 123° |
| 2026-04-30 05:12 | 25.19307 | 55.30054 | 5431 ft | 287 kts | 124° |
| 2026-04-30 05:13 | 25.18168 | 55.31889 | 5973 ft | 291 kts | 124° |
| 2026-04-30 05:13 | 25.17015 | 55.33732 | 6593 ft | 292 kts | 125° |
| 2026-04-30 05:13 | 25.15852 | 55.35575 | 7170 ft | 294 kts | 126° |
| 2026-04-30 05:13 | 25.14675 | 55.37430 | 7706 ft | 296 kts | 126° |
| 2026-04-30 05:14 | 25.13484 | 55.39298 | 8264 ft | 298 kts | 127° |
| 2026-04-30 05:14 | 25.12283 | 55.41175 | 8820 ft | 301 kts | 128° |
| 2026-04-30 05:14 | 25.11085 | 55.43042 | 9369 ft | 303 kts | 128° |
| 2026-04-30 05:14 | 25.09859 | 55.44946 | 9907 ft | 306 kts | 129° |
| 2026-04-30 05:15 | 25.08618 | 55.46872 | 10344 ft | 313 kts | 129° |
| 2026-04-30 05:15 | 25.07314 | 55.48886 | 10481 ft | 333 kts | 129° |
| 2026-04-30 05:15 | 25.05952 | 55.51038 | 10631 ft | 352 kts | 127° |
| 2026-04-30 05:15 | 25.04539 | 55.53331 | 10773 ft | 371 kts | 127° |
| 2026-04-30 05:16 | 25.03042 | 55.55733 | 11012 ft | 387 kts | 127° |
| 2026-04-30 05:16 | 25.01485 | 55.58194 | 11458 ft | 396 kts | 128° |